createdAt,value
2022-10-18T00:01:42.737Z,26.05
2022-10-18T00:04:12.760Z,28.05
2022-10-18T00:06:43.624Z,25.00
2022-10-18T00:09:14.003Z,33.22
2022-10-18T00:11:43.948Z,26.23
2022-10-18T00:14:14.131Z,28.67
2022-10-18T00:16:44.125Z,31.98
2022-10-18T00:19:14.221Z,40.30
2022-10-18T00:24:20.496Z,32.03
2022-10-18T00:26:50.845Z,27.73
2022-10-18T00:29:21.029Z,32.58
2022-10-18T00:31:50.975Z,33.13
2022-10-18T00:34:21.036Z,36.60
2022-10-18T00:36:51.250Z,36.45
2022-10-18T00:39:22.003Z,34.35
2022-10-18T00:41:52.598Z,36.53
2022-10-18T00:44:30.309Z,35.65
2022-10-18T00:47:03.860Z,32.47
2022-10-18T00:49:38.761Z,37.50
2022-10-18T00:52:12.044Z,40.63
2022-10-18T00:54:43.395Z,34.85
2022-10-18T00:57:15.430Z,39.78
2022-10-18T00:59:46.007Z,37.00
2022-10-18T01:02:20.103Z,51.75
2022-10-18T01:04:50.761Z,37.90
2022-10-18T01:07:39.326Z,37.60
2022-10-18T01:10:40.125Z,31.77
2022-10-18T01:13:50.108Z,33.17
2022-10-18T01:16:39.856Z,32.42
2022-10-18T01:19:32.221Z,38.88
2022-10-18T01:22:14.399Z,34.88
2022-10-18T01:24:57.000Z,36.05
2022-10-18T01:27:47.008Z,30.65
2022-10-18T01:30:39.828Z,36.50
2022-10-18T01:33:29.980Z,30.52
2022-10-18T01:36:16.551Z,33.75
2022-10-18T01:38:46.665Z,28.80
2022-10-18T01:41:17.791Z,24.40
2022-10-18T01:43:49.908Z,31.70
2022-10-18T01:46:23.116Z,28.92
2022-10-18T01:48:54.559Z,34.20
2022-10-18T01:51:34.317Z,21.45
2022-10-18T01:54:04.571Z,27.25
2022-10-18T01:56:50.381Z,22.38
2022-10-18T01:59:35.640Z,25.48
2022-10-18T02:02:23.268Z,24.02
2022-10-18T02:05:04.453Z,32.15
2022-10-18T02:07:48.983Z,24.17
2022-10-18T02:10:51.227Z,21.33
2022-10-18T02:13:22.664Z,14.25
2022-10-18T02:15:56.726Z,24.73
2022-10-18T02:18:32.433Z,25.48
2022-10-18T02:21:03.347Z,19.40
2022-10-18T02:23:33.775Z,17.98
2022-10-18T02:26:03.979Z,20.83
2022-10-18T02:28:34.359Z,22.17
2022-10-18T02:31:08.729Z,22.38
2022-10-18T02:33:46.951Z,22.90
2022-10-18T02:36:52.542Z,24.30
2022-10-18T02:39:25.107Z,22.88
2022-10-18T02:41:56.434Z,23.45
2022-10-18T02:44:26.739Z,28.13
2022-10-18T02:46:56.798Z,27.00
2022-10-18T02:49:26.912Z,16.95
2022-10-18T02:51:56.980Z,24.20
2022-10-18T02:54:26.966Z,29.17
2022-10-18T02:56:57.059Z,18.65
2022-10-18T02:59:27.570Z,26.67
2022-10-18T03:01:57.822Z,20.35
2022-10-18T03:06:58.680Z,19.48
2022-10-18T03:09:28.800Z,18.17
2022-10-18T03:11:59.358Z,19.38
2022-10-18T03:14:29.862Z,14.93
2022-10-18T03:17:00.137Z,22.42
2022-10-18T03:19:30.377Z,23.92
2022-10-18T03:22:00.357Z,13.23
2022-10-18T03:24:37.139Z,19.85
2022-10-18T03:27:07.386Z,22.77
2022-10-18T03:29:38.292Z,22.38
2022-10-18T03:32:08.582Z,21.15
2022-10-18T03:34:38.576Z,20.17
2022-10-18T03:37:08.631Z,13.60
2022-10-18T03:39:39.052Z,12.65
2022-10-18T03:42:10.016Z,11.63
2022-10-18T03:44:40.102Z,25.10
2022-10-18T03:47:10.104Z,25.15
2022-10-18T03:49:40.082Z,15.60
2022-10-18T03:52:10.201Z,14.45
2022-10-18T03:54:40.624Z,16.77
2022-10-18T03:57:11.350Z,13.82
2022-10-18T03:59:41.591Z,22.45
2022-10-18T04:02:12.244Z,25.02
2022-10-18T04:04:42.509Z,20.88
2022-10-18T04:07:12.784Z,22.30
2022-10-18T04:09:42.715Z,28.75
2022-10-18T04:12:13.361Z,19.20
2022-10-18T04:14:44.486Z,16.08
2022-10-18T04:17:15.375Z,15.00
2022-10-18T04:19:46.563Z,17.77
2022-10-18T04:22:16.962Z,20.20
2022-10-18T04:24:47.036Z,12.45
2022-10-18T04:27:17.919Z,12.40
2022-10-18T04:29:48.166Z,11.18
2022-10-18T04:32:19.163Z,14.55
2022-10-18T04:34:50.093Z,10.70
2022-10-18T04:37:20.719Z,9.23
2022-10-18T04:39:53.492Z,10.93
2022-10-18T04:42:24.796Z,11.18
2022-10-18T04:44:55.201Z,12.27
2022-10-18T04:47:29.393Z,11.20
2022-10-18T04:49:59.824Z,7.72
2022-10-18T04:52:30.662Z,9.10
2022-10-18T04:55:01.277Z,11.00
2022-10-18T04:57:31.888Z,19.65
2022-10-18T05:00:02.291Z,15.70
2022-10-18T05:02:35.416Z,6.43
2022-10-18T05:05:09.190Z,9.30
2022-10-18T05:07:43.109Z,11.00
2022-10-18T05:10:13.180Z,8.75
2022-10-18T05:12:45.028Z,11.48
2022-10-18T05:15:15.688Z,7.35
2022-10-18T05:17:46.054Z,8.00
2022-10-18T05:20:16.076Z,7.45
2022-10-18T05:22:46.107Z,10.18
2022-10-18T05:25:16.716Z,9.68
2022-10-18T05:27:47.835Z,9.45
2022-10-18T05:30:18.087Z,8.25
2022-10-18T05:32:48.015Z,9.45
2022-10-18T05:35:18.075Z,13.85
2022-10-18T05:37:48.023Z,10.60
2022-10-18T05:40:18.207Z,14.07
2022-10-18T05:42:49.547Z,12.25
2022-10-18T05:45:21.916Z,14.25
2022-10-18T05:47:52.046Z,15.57
2022-10-18T05:50:22.000Z,18.63
2022-10-18T05:52:52.538Z,59.13
2022-10-18T05:55:23.843Z,85.07
2022-10-18T05:57:54.197Z,37.15
2022-10-18T06:00:24.575Z,46.70
2022-10-18T06:02:58.207Z,51.33
2022-10-18T06:08:00.115Z,56.95
2022-10-18T06:10:30.217Z,59.45
2022-10-18T06:13:00.153Z,48.45
2022-10-18T06:15:30.221Z,45.78
2022-10-18T06:18:01.492Z,48.08
2022-10-18T06:20:31.778Z,93.57
2022-10-18T06:23:02.066Z,84.20
2022-10-18T06:25:32.219Z,105.10
2022-10-18T06:28:02.678Z,91.38
2022-10-18T06:30:32.928Z,78.63
2022-10-18T06:33:03.165Z,103.00
2022-10-18T06:35:33.341Z,80.15
2022-10-18T06:38:03.283Z,82.05
2022-10-18T06:40:39.116Z,88.40
2022-10-18T06:43:20.684Z,107.07
2022-10-18T06:45:52.157Z,106.57
2022-10-18T06:48:22.580Z,105.10
2022-10-18T06:50:59.471Z,100.47
2022-10-18T06:53:32.556Z,90.80
2022-10-18T06:56:07.458Z,100.95
2022-10-18T06:58:37.738Z,69.97
2022-10-18T07:01:11.951Z,80.00
2022-10-18T07:03:42.071Z,80.78
2022-10-18T07:06:13.618Z,74.55
2022-10-18T07:08:44.821Z,79.72
2022-10-18T07:11:19.657Z,82.90
2022-10-18T07:13:50.050Z,61.65
2022-10-18T07:16:20.792Z,78.18
2022-10-18T07:18:52.065Z,68.25
2022-10-18T07:21:24.824Z,75.10
2022-10-18T07:23:55.771Z,80.63
2022-10-18T07:26:33.558Z,61.08
2022-10-18T07:29:13.596Z,88.07
2022-10-18T07:31:43.772Z,99.80
2022-10-18T07:34:14.589Z,102.72
2022-10-18T07:36:44.896Z,89.93
2022-10-18T07:39:14.944Z,72.07
2022-10-18T07:41:44.932Z,73.88
2022-10-18T07:44:15.981Z,85.65
2022-10-18T07:46:46.804Z,56.90
2022-10-18T07:49:17.277Z,63.38
2022-10-18T07:51:47.562Z,86.43
2022-10-18T07:54:18.007Z,45.72
2022-10-18T07:56:48.387Z,53.72
2022-10-18T07:59:18.922Z,52.67
2022-10-18T08:01:49.912Z,44.50
2022-10-18T08:04:20.104Z,45.28
2022-10-18T08:06:52.327Z,40.80
2022-10-18T08:09:22.420Z,40.90
2022-10-18T08:11:53.271Z,31.50
2022-10-18T08:14:24.266Z,36.50
2022-10-18T08:16:54.714Z,33.83
2022-10-18T08:19:24.665Z,28.02
2022-10-18T08:21:54.619Z,24.40
2022-10-18T08:24:24.706Z,26.80
2022-10-18T08:26:55.556Z,26.80
2022-10-18T08:29:29.312Z,27.77
2022-10-18T08:32:01.881Z,31.15
2022-10-18T08:34:32.007Z,23.83
2022-10-18T08:37:02.639Z,24.17
2022-10-18T08:39:32.709Z,29.52
2022-10-18T08:42:08.348Z,19.15
2022-10-18T08:44:49.850Z,25.42
2022-10-18T08:47:24.821Z,16.83
2022-10-18T08:50:00.707Z,25.17
2022-10-18T08:52:31.341Z,21.58
2022-10-18T08:55:03.373Z,18.10
2022-10-18T08:57:34.307Z,16.75
2022-10-18T09:00:18.507Z,15.63
2022-10-18T09:03:15.546Z,12.77
2022-10-18T09:05:56.590Z,11.80
2022-10-18T09:08:48.402Z,14.60
2022-10-18T09:11:52.737Z,17.85
2022-10-18T09:15:00.295Z,12.70
2022-10-18T09:18:06.199Z,13.90
2022-10-18T09:20:52.138Z,8.15
2022-10-18T09:23:24.168Z,12.82
2022-10-18T09:26:16.185Z,11.73
2022-10-18T09:29:30.376Z,13.25
2022-10-18T09:32:37.403Z,14.27
2022-10-18T09:35:15.890Z,11.82
2022-10-18T09:37:46.165Z,12.18
2022-10-18T09:40:29.737Z,14.65
2022-10-18T09:43:03.281Z,11.02
2022-10-18T09:45:36.466Z,9.73
2022-10-18T09:48:13.993Z,10.30
2022-10-18T09:51:00.228Z,13.88
2022-10-18T09:53:56.937Z,13.45
2022-10-18T09:59:49.726Z,19.13
2022-10-18T10:02:24.359Z,14.02
2022-10-18T10:04:57.727Z,21.27
2022-10-18T10:07:37.825Z,22.48
2022-10-18T10:10:16.058Z,20.15
2022-10-18T10:12:47.238Z,24.00
2022-10-18T10:15:29.549Z,30.08
2022-10-18T10:18:05.324Z,22.52
2022-10-18T10:20:47.189Z,26.63
2022-10-18T10:23:40.147Z,25.17
2022-10-18T10:26:31.254Z,33.30
2022-10-18T10:29:01.554Z,19.73
2022-10-18T10:31:35.239Z,19.80
2022-10-18T10:34:06.217Z,28.27
2022-10-18T10:36:36.538Z,19.23
2022-10-18T10:39:20.203Z,18.30
2022-10-18T10:42:00.526Z,30.02
2022-10-18T10:44:33.630Z,27.25
2022-10-18T10:47:04.283Z,20.45
2022-10-18T10:49:44.451Z,24.92
2022-10-18T10:52:27.429Z,29.98
2022-10-18T10:55:11.040Z,33.17
2022-10-18T10:57:51.621Z,33.45
2022-10-18T11:00:59.280Z,30.02
2022-10-18T11:03:30.141Z,33.72
2022-10-18T11:06:06.804Z,35.38
2022-10-18T11:08:41.997Z,35.63
2022-10-18T11:11:35.581Z,43.78
2022-10-18T11:14:32.104Z,47.45
2022-10-18T11:17:17.008Z,40.80
2022-10-18T11:20:02.814Z,47.13
2022-10-18T11:22:37.889Z,44.20
2022-10-18T11:25:14.532Z,53.10
2022-10-18T11:28:08.284Z,58.05
2022-10-18T11:31:12.430Z,61.03
2022-10-18T11:34:12.117Z,59.22
2022-10-18T11:37:29.119Z,67.22
2022-10-18T11:40:18.813Z,58.63
2022-10-18T11:43:34.419Z,61.22
2022-10-18T11:46:50.626Z,62.88
2022-10-18T11:49:58.189Z,63.05
2022-10-18T11:52:46.844Z,60.03
2022-10-18T11:55:35.977Z,62.90
2022-10-18T11:58:25.945Z,61.67
2022-10-18T12:01:13.367Z,59.78
2022-10-18T12:03:52.981Z,58.50
2022-10-18T12:06:25.724Z,55.78
2022-10-18T12:09:05.980Z,66.38
2022-10-18T12:11:46.894Z,67.07
2022-10-18T12:14:26.746Z,56.78
2022-10-18T12:17:28.093Z,67.07
2022-10-18T12:19:50.172Z,57.78
2022-10-18T12:22:38.276Z,63.38
2022-10-18T12:25:15.746Z,72.00
2022-10-18T12:27:54.090Z,66.47
2022-10-18T12:30:46.565Z,59.45
2022-10-18T12:33:28.567Z,62.45
2022-10-18T12:36:14.566Z,60.13
2022-10-18T12:38:45.380Z,62.47
2022-10-18T12:41:21.784Z,65.63
2022-10-18T12:44:06.197Z,67.80
2022-10-18T12:46:57.141Z,66.18
2022-10-18T12:49:39.199Z,68.05
2022-10-18T12:52:30.026Z,64.90
2022-10-18T12:55:07.298Z,64.00
2022-10-18T12:57:56.024Z,61.08
2022-10-18T13:00:32.434Z,64.60
2022-10-18T13:03:14.114Z,62.00
2022-10-18T13:05:57.618Z,64.35
2022-10-18T13:08:36.403Z,64.47
2022-10-18T13:11:13.988Z,64.47
2022-10-18T13:14:24.134Z,69.22
2022-10-18T13:17:14.873Z,69.95
2022-10-18T13:20:24.556Z,66.25
2022-10-18T13:26:29.681Z,61.75
2022-10-18T13:29:25.169Z,65.63
2022-10-18T13:32:18.315Z,64.97
2022-10-18T13:34:48.388Z,64.82
2022-10-18T13:37:18.337Z,63.00
2022-10-18T13:39:51.350Z,69.97
2022-10-18T13:42:22.037Z,61.85
2022-10-18T13:44:52.325Z,59.72
2022-10-18T13:47:36.759Z,69.95
2022-10-18T13:53:27.939Z,69.13
2022-10-18T13:56:14.661Z,64.65
2022-10-18T13:59:27.799Z,64.55
2022-10-18T14:02:49.885Z,69.63
2022-10-18T14:06:03.077Z,67.72
2022-10-18T14:08:48.573Z,65.20
2022-10-18T14:11:45.383Z,69.88
2022-10-18T14:14:35.469Z,66.82
2022-10-18T14:17:33.665Z,68.20
2022-10-18T14:20:55.335Z,65.93
2022-10-18T14:23:37.513Z,73.88
2022-10-18T14:26:18.335Z,73.78
2022-10-18T14:29:09.197Z,73.53
2022-10-18T14:31:39.300Z,69.13
2022-10-18T14:34:14.259Z,67.22
2022-10-18T14:36:47.426Z,69.77
2022-10-18T14:39:22.630Z,72.40
2022-10-18T14:41:54.478Z,68.53
2022-10-18T14:44:35.987Z,69.60
2022-10-18T14:47:32.005Z,72.15
2022-10-18T14:50:02.471Z,71.47
2022-10-18T14:52:35.410Z,68.45
2022-10-18T14:55:06.321Z,75.63
2022-10-18T14:57:38.954Z,68.60
2022-10-18T15:00:29.246Z,67.07
2022-10-18T15:02:59.364Z,72.63
2022-10-18T15:05:29.899Z,70.85
2022-10-18T15:08:04.086Z,73.40
2022-10-18T15:10:41.309Z,66.45
2022-10-18T15:13:15.483Z,70.55
2022-10-18T15:15:45.959Z,66.45
2022-10-18T15:18:26.885Z,70.18
2022-10-18T15:21:25.377Z,67.85
2022-10-18T15:23:58.650Z,66.47
2022-10-18T15:26:30.836Z,63.80
2022-10-18T15:29:06.121Z,64.85
2022-10-18T15:31:39.709Z,60.13
2022-10-18T15:34:30.160Z,64.75
2022-10-18T15:37:05.952Z,60.58
2022-10-18T15:42:40.452Z,56.58
2022-10-18T15:45:32.038Z,61.70
2022-10-18T15:48:26.409Z,57.67
2022-10-18T15:51:03.111Z,65.68
2022-10-18T15:53:49.965Z,59.17
2022-10-18T15:56:29.933Z,58.45
2022-10-18T15:59:01.099Z,60.92
2022-10-18T16:01:42.118Z,62.42
2022-10-18T16:04:29.576Z,58.92
2022-10-18T16:06:59.903Z,60.53
2022-10-18T16:09:30.913Z,59.47
2022-10-18T16:12:04.010Z,61.30
2022-10-18T16:14:34.322Z,63.03
2022-10-18T16:17:06.118Z,62.45
2022-10-18T16:19:42.629Z,68.95
2022-10-18T16:24:49.216Z,62.10
2022-10-18T16:27:19.428Z,64.75
2022-10-18T16:29:50.699Z,71.82
2022-10-18T16:32:23.731Z,73.30
2022-10-18T16:34:59.610Z,66.63
2022-10-18T16:40:02.200Z,67.05
2022-10-18T16:42:34.195Z,78.60
2022-10-18T16:45:04.519Z,76.15
2022-10-18T16:47:47.101Z,76.47
2022-10-18T16:50:19.084Z,69.13
2022-10-18T16:52:49.659Z,72.03
2022-10-18T16:55:25.999Z,70.60
2022-10-18T16:57:58.304Z,71.22
2022-10-18T17:00:31.393Z,71.00
2022-10-18T17:03:03.855Z,65.55
2022-10-18T17:05:33.947Z,78.10
2022-10-18T17:08:06.017Z,68.47
2022-10-18T17:10:36.257Z,63.67
2022-10-18T17:13:06.230Z,66.47
2022-10-18T17:15:36.333Z,65.57
2022-10-18T17:18:10.178Z,70.75
2022-10-18T17:20:40.354Z,65.22
2022-10-18T17:23:22.930Z,71.95
2022-10-18T17:26:08.532Z,64.17
2022-10-18T17:28:58.816Z,75.03
2022-10-18T17:31:29.843Z,66.30
2022-10-18T17:34:02.708Z,65.75
2022-10-18T17:36:33.463Z,63.60
2022-10-18T17:39:09.613Z,70.75
2022-10-18T17:41:42.817Z,75.93
2022-10-18T17:44:15.859Z,67.10
2022-10-18T17:46:47.454Z,71.72
2022-10-18T17:49:23.994Z,74.93
2022-10-18T17:52:04.524Z,73.30
2022-10-18T17:57:22.679Z,66.07
2022-10-18T17:59:55.868Z,67.03
2022-10-18T18:02:26.118Z,58.78
2022-10-18T18:04:56.790Z,66.28
2022-10-18T18:07:26.983Z,69.40
2022-10-18T18:09:57.448Z,60.28
2022-10-18T18:12:28.166Z,66.00
2022-10-18T18:15:04.329Z,62.72
2022-10-18T18:20:27.654Z,70.45
2022-10-18T18:22:57.768Z,59.75
2022-10-18T18:25:30.852Z,67.30
2022-10-18T18:28:05.136Z,65.07
2022-10-18T18:30:36.826Z,58.60
2022-10-18T18:33:09.665Z,55.85
2022-10-18T18:35:45.667Z,65.47
2022-10-18T18:38:16.157Z,67.10
2022-10-18T18:40:46.340Z,62.92
2022-10-18T18:43:23.492Z,57.45
2022-10-18T18:45:55.427Z,57.72
2022-10-18T18:48:25.818Z,57.70
2022-10-18T18:51:01.944Z,58.03
2022-10-18T18:53:38.044Z,60.03
2022-10-18T18:56:10.034Z,61.33
2022-10-18T18:58:41.180Z,64.22
2022-10-18T19:01:21.972Z,62.60
2022-10-18T19:03:53.803Z,61.40
2022-10-18T19:06:24.505Z,62.20
2022-10-18T19:09:07.168Z,62.35
2022-10-18T19:11:42.762Z,59.45
2022-10-18T19:14:13.957Z,59.22
2022-10-18T19:17:09.861Z,64.70
2022-10-18T19:19:42.066Z,62.10
2022-10-18T19:22:15.385Z,60.83
2022-10-18T19:24:48.941Z,54.65
2022-10-18T19:27:19.158Z,66.95
2022-10-18T19:29:49.964Z,59.90
2022-10-18T19:32:20.788Z,57.58
2022-10-18T19:34:53.927Z,53.30
2022-10-18T19:37:30.086Z,56.60
2022-10-18T19:40:03.491Z,60.33
2022-10-18T19:42:34.305Z,55.47
2022-10-18T19:45:06.409Z,54.50
2022-10-18T19:47:39.440Z,58.92
2022-10-18T19:50:16.274Z,59.92
2022-10-18T19:52:49.869Z,56.17
2022-10-18T19:55:25.956Z,67.40
2022-10-18T19:58:02.098Z,55.40
2022-10-18T20:00:39.294Z,65.30
2022-10-18T20:03:09.654Z,61.30
2022-10-18T20:05:39.680Z,56.90
2022-10-18T20:08:16.017Z,57.63
2022-10-18T20:10:52.452Z,51.83
2022-10-18T20:13:25.249Z,47.45
2022-10-18T20:15:57.896Z,48.47
2022-10-18T20:18:30.247Z,50.35
2022-10-18T20:21:03.260Z,52.25
2022-10-18T20:23:33.857Z,53.22
2022-10-18T20:26:08.653Z,44.97
2022-10-18T20:28:43.151Z,49.22
2022-10-18T20:31:18.919Z,46.30
2022-10-18T20:36:26.119Z,48.97
2022-10-18T20:38:56.599Z,49.72
2022-10-18T20:41:28.493Z,46.22
2022-10-18T20:44:03.213Z,45.28
2022-10-18T20:46:34.745Z,40.35
2022-10-18T20:49:05.595Z,48.25
2022-10-18T20:51:42.388Z,42.78
2022-10-18T20:54:12.872Z,41.13
2022-10-18T20:56:43.022Z,34.50
2022-10-18T20:59:13.994Z,37.42
2022-10-18T21:01:46.484Z,39.03
2022-10-18T21:04:19.586Z,35.80
2022-10-18T21:06:49.849Z,42.05
2022-10-18T21:09:24.171Z,32.47
2022-10-18T21:12:01.800Z,40.45
2022-10-18T21:14:32.148Z,36.88
2022-10-18T21:17:02.080Z,39.65
2022-10-18T21:19:37.862Z,37.05
2022-10-18T21:22:07.927Z,33.38
2022-10-18T21:24:37.935Z,35.25
2022-10-18T21:27:07.937Z,33.30
2022-10-18T21:29:37.866Z,33.30
2022-10-18T21:32:08.033Z,36.30
2022-10-18T21:34:38.139Z,37.05
2022-10-18T21:37:08.238Z,37.70
2022-10-18T21:39:38.452Z,33.00
2022-10-18T21:42:10.716Z,35.33
2022-10-18T21:44:41.027Z,30.45
2022-10-18T21:47:11.382Z,35.90
2022-10-18T21:49:41.353Z,31.70
2022-10-18T21:52:14.287Z,35.33
2022-10-18T21:54:50.122Z,35.70
2022-10-18T21:57:26.160Z,29.63
2022-10-18T21:59:56.427Z,38.72
2022-10-18T22:02:26.445Z,32.10
2022-10-18T22:04:56.414Z,32.55
2022-10-18T22:07:28.074Z,31.73
2022-10-18T22:10:10.961Z,30.65
2022-10-18T22:12:41.180Z,35.50
2022-10-18T22:15:17.638Z,32.75
2022-10-18T22:17:53.576Z,34.20
2022-10-18T22:22:55.242Z,34.95
2022-10-18T22:25:26.632Z,32.03
2022-10-18T22:27:56.632Z,35.20
2022-10-18T22:30:26.625Z,29.13
2022-10-18T22:32:56.650Z,31.98
2022-10-18T22:35:32.647Z,33.20
2022-10-18T22:38:05.849Z,32.13
2022-10-18T22:40:36.104Z,29.45
2022-10-18T22:43:09.893Z,38.85
2022-10-18T22:45:41.287Z,27.23
2022-10-18T22:48:11.479Z,28.38
2022-10-18T22:50:41.436Z,34.63
2022-10-18T22:53:11.657Z,24.58
2022-10-18T22:55:41.702Z,27.65
2022-10-18T22:58:17.857Z,31.83
2022-10-18T23:00:48.406Z,31.83
2022-10-18T23:03:19.260Z,31.13
2022-10-18T23:05:50.783Z,29.95
2022-10-18T23:08:20.969Z,28.13
2022-10-18T23:10:58.225Z,27.20
2022-10-18T23:13:32.306Z,31.67
2022-10-18T23:16:04.832Z,28.48
2022-10-18T23:18:35.386Z,28.80
2022-10-18T23:21:10.176Z,31.77
2022-10-18T23:23:41.372Z,30.50
2022-10-18T23:26:15.006Z,28.58
2022-10-18T23:28:46.706Z,30.88
2022-10-18T23:31:21.727Z,30.27
2022-10-18T23:33:53.171Z,29.10
2022-10-18T23:36:29.917Z,30.20
2022-10-18T23:39:00.195Z,28.75
2022-10-18T23:41:30.688Z,37.15
2022-10-18T23:44:01.275Z,37.03
2022-10-18T23:46:31.815Z,42.80
2022-10-18T23:49:02.117Z,46.53
2022-10-18T23:51:32.664Z,33.17
2022-10-18T23:54:02.757Z,37.05
2022-10-18T23:56:32.670Z,33.70
2022-10-18T23:59:02.782Z,33.10
